Bremen, Kentucky
Current Conditions -  °F | °C
As of 9:15 AM on Monday 22 Dec 2014 (Local Time) from K2I0 Reporting Station
Overcast Overcast  
Wind Chill: 46°   Ceiling: 1900
Heat Index: 49°   Visibility: 7mi
Dew Point: 45°   Wind: 7mph
Humidity: 86%   Direction: 120°ESE
Pressure: 29.89"   Gusts: NA
Location:  37.36°N, 87.22°W
Report Text: K2I0 221515Z AUTO 12006KT 7SM OVC019 09/07 A2989 RMK AO2 T00930071
Loading
Personal Weather Stations






























Interactive Weather Map New forecast layout! Learn more

10-Day Weather Forecast

Advertisements
Track Severe Weather on mobile